Time;durP1;ratioP1;P1;durP2;ratioP2;P2;SDS_P1;SDS_P2;PMS_P1;PMS_P2;Temp;Humidity;BMP_temperature;BMP_pressure;BME280_temperature;BME280_humidity;BME280_pressure;Samples;Min_cycle;Max_cycle;Signal;HPM_P1;HPM_P2
2024/01/22 00:02:23;;;;;;;1.10;1.00;;;6.20;49.20;;;;;;5081961;28;20044;-66
2024/01/22 00:04:51;;;;;;;2.35;1.17;;;6.20;49.50;;;;;;5083521;28;20048;-64
2024/01/22 00:07:19;;;;;;;3.25;1.80;;;6.20;49.20;;;;;;5092664;28;21391;-65
2024/01/22 00:09:48;;;;;;;3.20;1.55;;;6.20;49.20;;;;;;5085896;28;20048;-63
2024/01/22 00:12:16;;;;;;;8.90;2.08;;;6.20;49.20;;;;;;5069890;28;20079;-65
2024/01/22 00:14:47;;;;;;;1.27;1.10;;;6.10;49.10;;;;;;5077520;28;20541;-65
2024/01/22 00:17:15;;;;;;;1.13;1.00;;;6.10;49.10;;;;;;5081762;28;20043;-67
2024/01/22 00:19:43;;;;;;;13.15;1.95;;;6.10;49.20;;;;;;5082050;28;20055;-66
2024/01/22 00:22:11;;;;;;;4.32;1.88;;;6.10;49.20;;;;;;5071749;28;20118;-64
2024/01/22 00:24:40;;;;;;;1.90;1.23;;;6.00;49.20;;;;;;5074622;28;20126;-64
2024/01/22 00:27:09;;;;;;;4.25;1.27;;;6.00;49.10;;;;;;5076737;28;22883;-63
2024/01/22 00:29:38;;;;;;;4.82;2.03;;;6.00;49.10;;;;;;5078673;28;20044;-65
2024/01/22 00:32:08;;;;;;;1.48;1.38;;;5.90;49.10;;;;;;5078986;28;20057;-66
2024/01/22 00:34:36;;;;;;;5.75;2.63;;;5.90;49.20;;;;;;5088349;28;20061;-65
2024/01/22 00:37:05;;;;;;;7.95;2.13;;;5.80;49.20;;;;;;5079198;28;20058;-65
2024/01/22 00:39:33;;;;;;;9.48;2.78;;;5.80;49.20;;;;;;5076166;28;20086;-64
2024/01/22 00:42:02;;;;;;;1.50;1.40;;;5.70;49.20;;;;;;5077780;28;20474;-64
2024/01/22 00:44:30;;;;;;;5.50;2.08;;;5.70;49.50;;;;;;5080308;28;20192;-64
2024/01/22 00:46:58;;;;;;;1.38;1.27;;;5.70;49.20;;;;;;5078910;28;20049;-64
2024/01/22 00:49:28;;;;;;;6.07;1.33;;;5.60;49.90;;;;;;5085717;28;20051;-63
2024/01/22 00:51:56;;;;;;;1.63;1.40;;;5.60;49.30;;;;;;5085996;28;20474;-64
2024/01/22 00:54:24;;;;;;;1.58;1.30;;;5.50;49.30;;;;;;5081995;28;20047;-63
2024/01/22 00:56:55;;;;;;;4.10;1.98;;;5.50;49.40;;;;;;5080401;28;20159;-64
2024/01/22 00:59:24;;;;;;;1.38;1.27;;;5.50;49.40;;;;;;5080436;28;20044;-63
2024/01/22 01:01:51;;;;;;;2.88;1.42;;;5.50;49.50;;;;;;5076125;28;20063;-63
2024/01/22 01:04:19;;;;;;;1.75;1.45;;;5.50;49.50;;;;;;5080342;28;20040;-63
2024/01/22 01:06:49;;;;;;;1.33;1.23;;;5.50;49.80;;;;;;5075716;28;20055;-64
2024/01/22 01:09:17;;;;;;;8.82;1.50;;;5.50;49.60;;;;;;5079218;28;20138;-64
2024/01/22 01:11:46;;;;;;;1.17;1.17;;;5.50;49.60;;;;;;5076326;28;20044;-64
2024/01/22 01:14:14;;;;;;;1.42;1.33;;;5.50;49.60;;;;;;5072954;28;20387;-65
2024/01/22 01:16:42;;;;;;;3.35;1.52;;;5.50;49.50;;;;;;5076052;28;20040;-66
2024/01/22 01:19:10;;;;;;;9.48;3.25;;;5.50;49.60;;;;;;5094444;27;20083;-62
2024/01/22 01:21:39;;;;;;;3.40;1.73;;;5.50;49.60;;;;;;5080717;28;20066;-63
2024/01/22 01:24:09;;;;;;;3.60;1.70;;;5.50;49.50;;;;;;5074900;28;20051;-64
2024/01/22 01:26:40;;;;;;;22.88;1.35;;;5.50;49.50;;;;;;5082816;28;20054;-64
2024/01/22 01:29:09;;;;;;;4.00;1.60;;;5.50;49.50;;;;;;5066944;28;20044;-64
2024/01/22 01:31:37;;;;;;;1.45;1.35;;;5.50;49.50;;;;;;5076434;28;20587;-65
2024/01/22 01:34:06;;;;;;;3.80;0.95;;;5.50;50.10;;;;;;5072261;28;20064;-64
2024/01/22 01:36:34;;;;;;;3.53;1.48;;;5.40;49.40;;;;;;5078589;28;20040;-65
2024/01/22 01:39:03;;;;;;;1.58;1.30;;;5.40;49.50;;;;;;5074413;28;20055;-63
2024/01/22 01:41:32;;;;;;;0.75;0.75;;;5.40;49.50;;;;;;5078715;28;20141;-64
2024/01/22 01:44:01;;;;;;;2.25;1.45;;;5.40;49.60;;;;;;5071960;28;20115;-63
2024/01/22 01:46:29;;;;;;;3.95;1.30;;;5.40;49.70;;;;;;5081248;28;20043;-64
2024/01/22 01:48:58;;;;;;;2.25;1.45;;;5.40;49.80;;;;;;5075816;28;20060;-64
2024/01/22 01:51:27;;;;;;;1.33;1.23;;;5.50;49.90;;;;;;5074257;28;20114;-65
2024/01/22 01:53:57;;;;;;;3.00;1.90;;;5.50;49.80;;;;;;5089423;28;20493;-64
2024/01/22 01:56:26;;;;;;;0.95;0.95;;;5.50;49.70;;;;;;5085139;28;20508;-65
2024/01/22 01:58:56;;;;;;;0.68;0.68;;;5.50;49.70;;;;;;5075974;28;20052;-64
2024/01/22 02:01:24;;;;;;;1.55;1.00;;;5.60;49.70;;;;;;5086871;28;20044;-61
2024/01/22 02:03:53;;;;;;;6.68;3.40;;;5.60;49.70;;;;;;5081106;28;20150;-63
2024/01/22 02:06:22;;;;;;;1.27;1.02;;;5.60;49.70;;;;;;5083412;28;20056;-69
2024/01/22 02:08:54;;;;;;;19.67;2.17;;;5.70;49.80;;;;;;5081322;28;20044;-65
2024/01/22 02:11:23;;;;;;;7.50;1.75;;;5.70;49.60;;;;;;5079271;28;20099;-63
2024/01/22 02:13:52;;;;;;;22.90;7.72;;;5.70;49.60;;;;;;5093038;28;20040;-63
2024/01/22 02:16:22;;;;;;;2.58;2.35;;;5.70;49.60;;;;;;5081859;28;20044;-64
2024/01/22 02:18:50;;;;;;;0.95;0.90;;;5.80;49.60;;;;;;5085423;28;20090;-62
2024/01/22 02:21:19;;;;;;;1.38;1.27;;;5.70;49.40;;;;;;5085715;28;20137;-64
2024/01/22 02:23:48;;;;;;;0.80;0.80;;;5.70;49.40;;;;;;5084565;28;20114;-64
2024/01/22 02:26:16;;;;;;;1.13;1.13;;;5.70;49.40;;;;;;5096905;28;20035;-63
2024/01/22 02:28:45;;;;;;;3.92;1.35;;;5.70;49.40;;;;;;5079477;28;20482;-63
2024/01/22 02:31:13;;;;;;;1.23;0.95;;;5.70;49.90;;;;;;5074234;28;20047;-63
2024/01/22 02:33:42;;;;;;;6.57;2.38;;;5.60;49.20;;;;;;5095949;27;20037;-63
2024/01/22 02:36:10;;;;;;;1.15;1.05;;;5.60;49.40;;;;;;5084677;28;20050;-63
2024/01/22 02:38:38;;;;;;;1.80;1.35;;;5.50;49.30;;;;;;5077696;28;20053;-65
2024/01/22 02:41:08;;;;;;;7.15;1.95;;;5.50;49.30;;;;;;5082879;28;20607;-64
2024/01/22 02:43:36;;;;;;;1.45;1.08;;;5.50;49.30;;;;;;5074243;28;20048;-63
2024/01/22 02:46:05;;;;;;;2.15;1.20;;;5.40;49.40;;;;;;5089791;28;20048;-64
2024/01/22 02:48:33;;;;;;;3.13;2.00;;;5.40;49.30;;;;;;5079932;28;20494;-64
2024/01/22 02:51:01;;;;;;;4.85;2.17;;;5.30;49.40;;;;;;5070365;28;20037;-64
2024/01/22 02:53:29;;;;;;;0.88;0.88;;;5.30;49.40;;;;;;5080250;28;20786;-63
2024/01/22 02:55:58;;;;;;;1.33;1.02;;;5.30;49.40;;;;;;5077739;28;20040;-64
2024/01/22 02:58:27;;;;;;;2.17;1.58;;;5.20;49.40;;;;;;5072014;28;20044;-63
2024/01/22 03:00:56;;;;;;;5.00;1.33;;;5.20;49.50;;;;;;5078912;28;20040;-63
2024/01/22 03:03:24;;;;;;;1.85;1.48;;;5.20;49.60;;;;;;5082000;28;20040;-61
2024/01/22 03:05:52;;;;;;;11.35;2.63;;;5.20;49.60;;;;;;5082665;28;20063;-63
2024/01/22 03:08:21;;;;;;;8.52;1.05;;;5.20;49.80;;;;;;5081373;28;20136;-74
2024/01/22 03:10:49;;;;;;;1.27;1.17;;;5.20;49.70;;;;;;5085553;28;20139;-64
2024/01/22 03:13:18;;;;;;;1.88;1.08;;;5.30;49.80;;;;;;5076857;28;20044;-64
2024/01/22 03:15:47;;;;;;;2.35;1.42;;;5.30;50.50;;;;;;5069655;28;21324;-64
2024/01/22 03:18:15;;;;;;;1.77;1.13;;;5.30;49.80;;;;;;5073577;28;20093;-62
2024/01/22 03:20:44;;;;;;;2.72;1.50;;;5.30;49.80;;;;;;5075698;28;20041;-63
2024/01/22 03:23:12;;;;;;;9.95;3.67;;;5.30;49.70;;;;;;5096523;27;20036;-64
2024/01/22 03:25:41;;;;;;;9.68;2.50;;;5.40;49.80;;;;;;5074309;28;20094;-64
2024/01/22 03:28:09;;;;;;;1.17;1.08;;;5.30;50.00;;;;;;5083377;28;20097;-64
2024/01/22 03:30:37;;;;;;;8.05;4.05;;;5.30;49.60;;;;;;5075156;28;20036;-64
2024/01/22 03:33:08;;;;;;;5.30;1.85;;;5.30;49.60;;;;;;5081543;28;20036;-64
2024/01/22 03:35:36;;;;;;;1.13;1.02;;;5.30;49.60;;;;;;5082134;28;20036;-65
2024/01/22 03:38:05;;;;;;;1.08;1.08;;;5.30;49.60;;;;;;5078635;28;20045;-65
2024/01/22 03:40:33;;;;;;;0.93;0.93;;;5.20;49.60;;;;;;5080857;28;20037;-64
2024/01/22 03:43:01;;;;;;;1.98;1.45;;;5.30;50.20;;;;;;5087997;28;20045;-65
2024/01/22 03:45:29;;;;;;;0.68;0.68;;;5.30;49.80;;;;;;5075531;28;20066;-64
2024/01/22 03:47:57;;;;;;;0.80;0.80;;;5.30;49.90;;;;;;5077175;28;20529;-64
2024/01/22 03:50:27;;;;;;;1.80;1.00;;;5.40;50.00;;;;;;5078412;28;20098;-65
2024/01/22 03:52:56;;;;;;;0.85;0.85;;;5.50;49.90;;;;;;5077603;28;20071;-64
2024/01/22 03:55:24;;;;;;;1.73;1.17;;;5.50;49.80;;;;;;5080087;28;20071;-65
2024/01/22 03:57:52;;;;;;;3.00;1.67;;;5.60;49.80;;;;;;5077822;28;20044;-64
2024/01/22 04:00:20;;;;;;;3.03;1.85;;;5.60;49.70;;;;;;5074443;28;20040;-64
2024/01/22 04:02:50;;;;;;;1.35;1.25;;;5.70;49.70;;;;;;5078420;28;20043;-64
2024/01/22 04:05:18;;;;;;;0.80;0.80;;;5.70;49.70;;;;;;5080354;28;20070;-63
2024/01/22 04:07:48;;;;;;;5.78;1.25;;;5.70;49.50;;;;;;5069723;28;20057;-64
2024/01/22 04:10:16;;;;;;;2.25;1.20;;;5.70;49.50;;;;;;5076535;28;20041;-63
2024/01/22 04:12:44;;;;;;;0.60;0.60;;;5.70;49.70;;;;;;5075523;28;20041;-62
2024/01/22 04:15:13;;;;;;;0.75;0.75;;;5.70;49.40;;;;;;5076114;28;20048;-65
2024/01/22 04:17:42;;;;;;;1.00;1.00;;;5.70;49.40;;;;;;5079060;28;20047;-64
2024/01/22 04:20:13;;;;;;;0.80;0.77;;;5.70;49.40;;;;;;5087071;28;20052;-65
2024/01/22 04:22:42;;;;;;;2.13;1.80;;;5.70;49.30;;;;;;5079653;28;20044;-63
2024/01/22 04:25:11;;;;;;;0.80;0.68;;;5.60;49.30;;;;;;5068965;28;20064;-65
2024/01/22 04:27:39;;;;;;;1.35;1.10;;;5.60;49.20;;;;;;5075006;28;20094;-63
2024/01/22 04:30:08;;;;;;;0.57;0.57;;;5.60;49.30;;;;;;5074637;28;20050;-64
2024/01/22 04:32:37;;;;;;;6.53;1.23;;;5.60;49.30;;;;;;5079323;28;20439;-63
2024/01/22 04:35:07;;;;;;;1.77;1.67;;;5.50;49.30;;;;;;5078915;28;20061;-73
2024/01/22 04:37:35;;;;;;;2.60;0.70;;;5.50;49.30;;;;;;5079408;28;20080;-65
2024/01/22 04:40:13;;;;;;;1.13;0.95;;;5.50;49.30;;;;;;5079804;28;20050;-63
2024/01/22 04:42:43;;;;;;;4.22;1.13;;;5.50;49.30;;;;;;5077869;28;20516;-63
2024/01/22 04:45:11;;;;;;;4.70;1.75;;;5.50;49.30;;;;;;5075821;28;20067;-64
2024/01/22 04:47:39;;;;;;;0.98;0.98;;;5.50;49.30;;;;;;5073333;28;20142;-63
2024/01/22 04:50:08;;;;;;;8.98;2.42;;;5.50;49.30;;;;;;5088897;28;20162;-65
2024/01/22 04:52:36;;;;;;;1.80;1.52;;;5.50;49.50;;;;;;5080378;28;20113;-64
2024/01/22 04:55:05;;;;;;;7.72;2.33;;;5.50;49.30;;;;;;5081964;28;20071;-65
2024/01/22 04:57:48;;;;;;;2.15;1.80;;;5.50;49.20;;;;;;5081166;28;20043;-63
2024/01/22 05:00:17;;;;;;;5.13;1.98;;;5.50;49.20;;;;;;5068963;28;20037;-64
2024/01/22 05:02:46;;;;;;;3.65;1.02;;;5.50;49.20;;;;;;5078988;28;20089;-63
2024/01/22 05:05:15;;;;;;;4.57;1.75;;;5.50;49.20;;;;;;5077257;28;20051;-71
2024/01/22 05:07:44;;;;;;;4.28;1.77;;;5.40;49.20;;;;;;5077410;28;20052;-62
2024/01/22 05:10:13;;;;;;;0.90;0.82;;;5.40;49.30;;;;;;5078200;28;20048;-64
2024/01/22 05:12:42;;;;;;;3.72;1.95;;;5.40;49.40;;;;;;5081877;28;20650;-64
2024/01/22 05:15:12;;;;;;;1.00;1.00;;;5.40;49.50;;;;;;5073344;28;20097;-65
2024/01/22 05:17:41;;;;;;;30.20;1.75;;;5.50;49.50;;;;;;5081766;28;20047;-64
2024/01/22 05:20:11;;;;;;;1.50;1.15;;;5.50;49.50;;;;;;5082478;28;20523;-64
2024/01/22 05:22:39;;;;;;;0.70;0.70;;;5.60;49.60;;;;;;5077580;28;20449;-65
2024/01/22 05:25:10;;;;;;;3.47;1.88;;;5.60;49.60;;;;;;5080808;28;20067;-64
2024/01/22 05:27:37;;;;;;;25.98;2.05;;;5.60;49.50;;;;;;5078471;28;20569;-64
2024/01/22 05:30:07;;;;;;;1.38;1.15;;;5.60;49.80;;;;;;5078905;28;20048;-63
2024/01/22 05:32:37;;;;;;;2.60;1.02;;;5.60;49.70;;;;;;5079423;28;20352;-65
2024/01/22 05:35:06;;;;;;;4.78;1.70;;;5.60;49.50;;;;;;5080472;28;20036;-65
2024/01/22 05:37:34;;;;;;;2.55;1.50;;;5.70;49.40;;;;;;5096622;27;20056;-65
2024/01/22 05:40:03;;;;;;;3.33;1.25;;;5.70;49.40;;;;;;5077440;28;20039;-64
2024/01/22 05:42:32;;;;;;;3.38;2.03;;;5.70;49.40;;;;;;5102685;28;20043;-64
2024/01/22 05:45:00;;;;;;;25.20;2.45;;;5.70;49.40;;;;;;5074444;28;20036;-65
2024/01/22 05:47:29;;;;;;;13.55;1.60;;;5.70;49.40;;;;;;5091894;28;20076;-66
2024/01/22 05:49:58;;;;;;;5.07;3.08;;;5.70;49.40;;;;;;5076823;28;20119;-66
2024/01/22 05:52:28;;;;;;;1.67;1.20;;;5.70;49.40;;;;;;5080241;28;20476;-70
2024/01/22 05:54:57;;;;;;;5.63;2.60;;;5.60;50.00;;;;;;5056841;28;20039;-69
2024/01/22 05:57:25;;;;;;;2.05;1.60;;;5.60;49.40;;;;;;5085957;28;20046;-73
2024/01/22 05:59:54;;;;;;;1.52;0.82;;;5.60;49.40;;;;;;5077486;28;20819;-74
2024/01/22 06:02:22;;;;;;;2.22;1.33;;;5.60;49.40;;;;;;5080873;28;20071;-74
2024/01/22 06:04:51;;;;;;;12.02;1.75;;;5.60;49.40;;;;;;5082289;28;20044;-73
2024/01/22 06:07:20;;;;;;;1.83;1.55;;;5.60;49.50;;;;;;5079713;28;20532;-72
2024/01/22 06:09:49;;;;;;;1.00;1.00;;;5.60;49.40;;;;;;5084530;28;20131;-68
2024/01/22 06:12:29;;;;;;;1.27;1.17;;;5.70;49.40;;;;;;5078827;28;20048;-69
2024/01/22 06:14:58;;;;;;;4.35;1.55;;;5.70;49.50;;;;;;5075242;28;20082;-66
2024/01/22 06:17:30;;;;;;;12.50;1.52;;;5.70;49.50;;;;;;5081946;28;20185;-69
2024/01/22 06:20:00;;;;;;;5.25;1.52;;;5.70;49.50;;;;;;5072366;28;20701;-70
2024/01/22 06:22:30;;;;;;;2.30;1.30;;;5.70;49.50;;;;;;5081287;28;20085;-67
2024/01/22 06:25:00;;;;;;;1.02;1.02;;;5.80;49.50;;;;;;5067514;28;20048;-69
2024/01/22 06:27:28;;;;;;;1.08;0.88;;;5.80;49.60;;;;;;5069812;28;20056;-70
2024/01/22 06:29:59;;;;;;;10.45;1.35;;;5.90;49.60;;;;;;5068618;28;20080;-61
2024/01/22 06:32:28;;;;;;;0.60;0.60;;;6.00;49.80;;;;;;5069423;28;20515;-67
2024/01/22 06:34:58;;;;;;;35.08;6.18;;;6.10;49.60;;;;;;5071645;28;20060;-69
2024/01/22 06:37:26;;;;;;;10.20;0.90;;;6.20;49.60;;;;;;5074233;28;20107;-62
2024/01/22 06:39:58;;;;;;;3.53;2.38;;;6.20;49.50;;;;;;5075423;28;20051;-66
2024/01/22 06:42:27;;;;;;;18.45;1.40;;;6.30;49.30;;;;;;5073737;28;20056;-65
2024/01/22 06:45:07;;;;;;;0.80;0.80;;;6.30;49.20;;;;;;5069571;28;20055;-64
2024/01/22 06:47:36;;;;;;;1.55;1.35;;;6.40;49.20;;;;;;5077724;28;20056;-62
2024/01/22 06:50:06;;;;;;;7.53;2.65;;;6.40;49.10;;;;;;5078826;27;20092;-62
2024/01/22 06:52:36;;;;;;;0.70;0.70;;;6.50;49.20;;;;;;5075682;28;20135;-63
2024/01/22 06:55:08;;;;;;;6.38;1.10;;;6.50;48.80;;;;;;5066525;28;20580;-66
2024/01/22 06:57:36;;;;;;;8.52;2.35;;;6.60;48.90;;;;;;5073138;27;20109;-62
2024/01/22 07:00:07;;;;;;;3.92;1.05;;;6.60;48.70;;;;;;5075536;28;20060;-64
2024/01/22 07:02:37;;;;;;;11.93;1.60;;;6.70;48.80;;;;;;5076525;28;20113;-61
2024/01/22 07:05:07;;;;;;;1.05;1.02;;;6.70;48.70;;;;;;5059046;28;20067;-61
2024/01/22 07:07:35;;;;;;;15.38;1.40;;;6.80;48.70;;;;;;5069452;28;20058;-61
2024/01/22 07:10:07;;;;;;;1.48;1.08;;;6.90;48.70;;;;;;5089521;28;20055;-64
2024/01/22 07:12:36;;;;;;;4.90;1.70;;;6.90;48.50;;;;;;5093898;27;20648;-66
2024/01/22 07:15:05;;;;;;;3.75;1.55;;;6.90;48.50;;;;;;5069028;28;20052;-63
2024/01/22 07:17:33;;;;;;;3.40;1.35;;;7.00;48.50;;;;;;5069015;28;20060;-62
2024/01/22 07:20:02;;;;;;;1.60;1.23;;;7.10;48.40;;;;;;5069849;28;20065;-62
2024/01/22 07:22:30;;;;;;;20.23;1.83;;;7.10;48.30;;;;;;5073954;28;20056;-64
2024/01/22 07:24:58;;;;;;;2.90;2.08;;;7.20;48.30;;;;;;5061873;28;20049;-61
2024/01/22 07:27:29;;;;;;;19.98;2.72;;;7.20;48.30;;;;;;5070572;28;20083;-73
2024/01/22 07:29:58;;;;;;;2.15;1.70;;;7.20;48.30;;;;;;5075098;27;20053;-72
2024/01/22 07:32:27;;;;;;;0.85;0.77;;;7.30;48.10;;;;;;5077715;28;20238;-68
2024/01/22 07:34:56;;;;;;;4.32;2.25;;;7.40;48.30;;;;;;5086552;28;20047;-83
2024/01/22 07:37:24;;;;;;;1.42;1.02;;;7.50;48.00;;;;;;5073415;28;20053;-68
2024/01/22 07:39:53;;;;;;;6.03;1.10;;;7.60;48.00;;;;;;5076075;28;20059;-67
2024/01/22 07:42:21;;;;;;;2.10;1.42;;;7.70;48.20;;;;;;5088017;28;20048;-67
2024/01/22 07:44:53;;;;;;;5.53;1.92;;;7.80;48.10;;;;;;5076411;28;20052;-69
2024/01/22 07:47:22;;;;;;;14.32;0.80;;;7.90;48.10;;;;;;5069471;28;20134;-68
2024/01/22 07:49:50;;;;;;;15.27;2.05;;;8.00;48.30;;;;;;5068811;28;20051;-68
2024/01/22 07:52:21;;;;;;;14.75;1.60;;;8.10;47.90;;;;;;5071964;28;20059;-68
2024/01/22 07:54:49;;;;;;;11.07;2.17;;;8.20;48.00;;;;;;5073794;28;20116;-68
2024/01/22 07:57:18;;;;;;;16.25;1.55;;;8.30;47.80;;;;;;5065208;28;20117;-69
2024/01/22 07:59:46;;;;;;;4.47;0.90;;;8.40;47.90;;;;;;5084341;27;20060;-70
2024/01/22 08:02:17;;;;;;;12.38;1.55;;;8.50;47.80;;;;;;5076312;28;20047;-67
2024/01/22 08:04:54;;;;;;;2.22;1.30;;;8.50;47.70;;;;;;5079988;28;20044;-70
2024/01/22 08:07:23;;;;;;;9.65;1.08;;;8.50;47.60;;;;;;5074385;28;20055;-70
2024/01/22 08:09:54;;;;;;;5.25;1.80;;;8.50;47.40;;;;;;5068980;28;20474;-86
2024/01/22 08:12:23;;;;;;;4.95;1.50;;;8.60;47.50;;;;;;5070560;28;20048;-71
2024/01/22 08:14:54;;;;;;;27.80;2.17;;;8.60;48.20;;;;;;5075359;28;20258;-56
2024/01/22 08:17:25;;;;;;;4.13;1.60;;;8.70;47.60;;;;;;5067588;28;20806;-74
2024/01/22 08:19:54;;;;;;;16.55;2.10;;;8.70;47.70;;;;;;5067943;28;20510;-64
2024/01/22 08:22:22;;;;;;;1.67;0.98;;;8.80;47.60;;;;;;5067586;28;20129;-60
2024/01/22 08:24:51;;;;;;;3.00;1.73;;;8.90;47.60;;;;;;5063476;28;20067;-63
2024/01/22 08:27:21;;;;;;;11.75;1.85;;;9.00;47.50;;;;;;5079643;28;20156;-61
2024/01/22 08:29:51;;;;;;;1.63;0.70;;;9.10;47.50;;;;;;5073693;28;20068;-64
2024/01/22 08:32:19;;;;;;;4.30;1.20;;;9.20;47.40;;;;;;5071606;28;20463;-60
2024/01/22 08:34:49;;;;;;;11.13;2.97;;;9.30;47.40;;;;;;5068576;28;20056;-61
2024/01/22 08:37:18;;;;;;;16.23;2.90;;;9.40;47.40;;;;;;5069246;28;20059;-62
2024/01/22 08:39:47;;;;;;;12.27;2.05;;;9.50;47.50;;;;;;5066643;27;20135;-64
2024/01/22 08:42:16;;;;;;;4.50;1.23;;;9.60;47.60;;;;;;5072620;28;20060;-61
2024/01/22 08:44:45;;;;;;;26.60;3.35;;;9.80;47.70;;;;;;5066441;28;20150;-61
2024/01/22 08:47:15;;;;;;;20.95;2.63;;;10.00;47.70;;;;;;5077496;28;20059;-58
2024/01/22 08:49:43;;;;;;;17.80;4.20;;;10.20;47.70;;;;;;5064063;28;20067;-65
2024/01/22 08:52:13;;;;;;;6.03;1.70;;;10.50;47.60;;;;;;5076661;28;20078;-60
2024/01/22 08:54:42;;;;;;;2.17;1.00;;;10.80;47.50;;;;;;5059764;28;20056;-61
2024/01/22 08:57:10;;;;;;;3.20;1.30;;;11.10;47.30;;;;;;5060190;28;20514;-63
2024/01/22 08:59:40;;;;;;;5.97;1.88;;;11.30;47.00;;;;;;5070243;28;20051;-61
2024/01/22 09:02:08;;;;;;;7.93;2.70;;;11.50;47.20;;;;;;5071964;28;20059;-62
2024/01/22 09:04:36;;;;;;;26.02;3.95;;;11.80;47.20;;;;;;5072673;28;20059;-65
2024/01/22 09:07:05;;;;;;;15.45;2.65;;;11.90;47.00;;;;;;5059781;28;20060;-63
2024/01/22 09:09:34;;;;;;;50.67;3.70;;;12.30;46.90;;;;;;5070659;28;20048;-68
2024/01/22 09:12:03;;;;;;;3.53;1.45;;;12.60;46.70;;;;;;5080905;28;20048;-65
2024/01/22 09:14:31;;;;;;;12.00;2.55;;;12.70;46.20;;;;;;5070378;28;20063;-61
2024/01/22 09:17:00;;;;;;;2.80;1.35;;;12.80;45.90;;;;;;5065056;28;20048;-64
2024/01/22 09:19:29;;;;;;;3.25;1.60;;;12.90;45.60;;;;;;5071647;28;20478;-63
2024/01/22 09:21:58;;;;;;;5.53;1.88;;;12.90;45.60;;;;;;5069471;28;20056;-61
2024/01/22 09:24:26;;;;;;;3.42;1.13;;;13.00;45.50;;;;;;5069867;28;20384;-64
2024/01/22 09:26:56;;;;;;;13.50;2.05;;;13.00;45.30;;;;;;5068717;28;20075;-63
2024/01/22 09:29:24;;;;;;;2.70;1.05;;;13.20;45.40;;;;;;5065297;28;20147;-63
2024/01/22 09:31:53;;;;;;;9.60;2.13;;;13.20;44.80;;;;;;5069866;28;20485;-63
2024/01/22 09:34:21;;;;;;;16.65;1.88;;;13.20;44.80;;;;;;5070067;28;20205;-63
2024/01/22 09:36:50;;;;;;;26.08;4.32;;;13.30;44.60;;;;;;5071846;28;20215;-61
2024/01/22 09:39:19;;;;;;;9.23;3.05;;;13.20;44.20;;;;;;5066872;28;20059;-61
2024/01/22 09:41:49;;;;;;;3.90;1.50;;;13.20;44.40;;;;;;5070249;28;20062;-62
2024/01/22 09:44:21;;;;;;;36.47;3.47;;;13.20;44.40;;;;;;5071062;28;20505;-62
2024/01/22 09:46:50;;;;;;;4.72;0.90;;;13.10;44.50;;;;;;5068518;27;20131;-63
2024/01/22 09:49:19;;;;;;;13.57;2.38;;;13.00;43.60;;;;;;5065544;28;20052;-63
2024/01/22 09:51:48;;;;;;;11.18;3.53;;;12.90;43.90;;;;;;5085653;28;20521;-60
2024/01/22 09:54:18;;;;;;;2.80;1.30;;;12.80;44.60;;;;;;5068176;28;20097;-61
2024/01/22 09:56:55;;;;;;;2.05;1.17;;;12.80;44.20;;;;;;5069623;28;20055;-65
2024/01/22 09:59:26;;;;;;;10.25;2.28;;;12.90;44.40;;;;;;5068990;28;20662;-62
2024/01/22 10:01:55;;;;;;;6.55;1.92;;;13.00;44.40;;;;;;5067654;28;20056;-66
2024/01/22 10:04:25;;;;;;;14.80;2.65;;;13.00;44.30;;;;;;5070514;28;20083;-63
2024/01/22 10:06:54;;;;;;;19.77;1.95;;;13.10;44.40;;;;;;5063974;28;20459;-63
2024/01/22 10:09:23;;;;;;;7.70;2.20;;;13.20;44.20;;;;;;5066864;28;20052;-63
2024/01/22 10:11:51;;;;;;;8.80;2.92;;;13.20;44.10;;;;;;5070060;28;20145;-63
2024/01/22 10:14:31;;;;;;;9.57;2.45;;;13.10;43.80;;;;;;5088313;28;21214;-63
2024/01/22 10:17:15;;;;;;;27.40;2.40;;;13.00;43.70;;;;;;5066163;28;20121;-64
2024/01/22 10:19:45;;;;;;;27.25;3.95;;;12.90;43.60;;;;;;5067622;28;20610;-64
2024/01/22 10:22:13;;;;;;;4.85;1.13;;;12.80;43.70;;;;;;5072062;28;20059;-62
2024/01/22 10:24:41;;;;;;;15.05;3.65;;;12.70;43.80;;;;;;5066075;28;20064;-64
2024/01/22 10:27:16;;;;;;;9.55;1.98;;;12.60;43.80;;;;;;5062219;28;20558;-63
2024/01/22 10:29:46;;;;;;;7.80;1.90;;;12.60;44.00;;;;;;5074434;28;20087;-62
2024/01/22 10:32:21;;;;;;;22.58;2.20;;;12.60;43.90;;;;;;5071448;28;20137;-64
2024/01/22 10:34:53;;;;;;;12.55;1.85;;;12.50;44.00;;;;;;5074041;28;20052;-80
2024/01/22 10:37:22;;;;;;;15.70;2.05;;;12.60;44.10;;;;;;5068670;28;21668;-65
2024/01/22 10:40:01;;;;;;;9.48;1.92;;;12.80;44.10;;;;;;5071766;28;20151;-67
2024/01/22 10:42:29;;;;;;;8.30;2.30;;;12.90;43.70;;;;;;5067257;28;21527;-63
2024/01/22 10:45:00;;;;;;;4.07;1.38;;;12.90;43.40;;;;;;5075233;28;20131;-65
2024/01/22 10:47:31;;;;;;;20.75;2.22;;;12.90;43.60;;;;;;5074016;28;20058;-64
2024/01/22 10:50:03;;;;;;;1.17;1.10;;;13.00;43.80;;;;;;5071696;28;20059;-65
2024/01/22 10:52:34;;;;;;;6.63;2.33;;;12.90;43.00;;;;;;5070317;28;20164;-65
2024/01/22 10:55:03;;;;;;;3.83;1.38;;;12.80;42.60;;;;;;5056709;28;20061;-64
2024/01/22 10:57:37;;;;;;;6.85;1.73;;;12.70;42.70;;;;;;5070818;28;20056;-64
2024/01/22 11:00:11;;;;;;;3.50;1.30;;;12.70;43.00;;;;;;5070161;28;20056;-62
2024/01/22 11:02:43;;;;;;;2.97;1.23;;;12.60;42.90;;;;;;5062890;28;20398;-64
2024/01/22 11:05:16;;;;;;;25.70;7.18;;;12.60;43.10;;;;;;5063999;28;20392;-65
2024/01/22 11:07:47;;;;;;;14.63;3.20;;;12.70;43.20;;;;;;5065684;28;20542;-70
2024/01/22 11:10:17;;;;;;;5.85;2.70;;;12.80;43.40;;;;;;5083769;27;20578;-67
2024/01/22 11:12:50;;;;;;;19.48;2.60;;;13.00;43.50;;;;;;5064732;28;20056;-65
2024/01/22 11:15:20;;;;;;;35.72;4.00;;;13.20;43.30;;;;;;5061312;28;20052;-62
2024/01/22 11:17:48;;;;;;;4.75;1.63;;;13.20;42.80;;;;;;5063880;27;20205;-66
2024/01/22 11:20:18;;;;;;;1.60;1.25;;;13.30;43.10;;;;;;5063625;28;20060;-66
2024/01/22 11:22:59;;;;;;;12.48;2.08;;;13.20;42.50;;;;;;5070283;28;20148;-79
2024/01/22 11:25:28;;;;;;;5.97;2.03;;;13.20;42.80;;;;;;5063339;28;20048;-64
2024/01/22 11:28:02;;;;;;;12.98;1.95;;;13.30;43.00;;;;;;5080424;28;21494;-64
2024/01/22 11:30:37;;;;;;;3.17;1.70;;;13.20;42.80;;;;;;5080549;28;20109;-62
2024/01/22 11:33:30;;;;;;;11.60;1.88;;;13.30;42.90;;;;;;5064314;28;20525;-64
2024/01/22 11:35:59;;;;;;;5.25;2.17;;;13.20;42.70;;;;;;5068606;27;20155;-83
2024/01/22 11:38:51;;;;;;;13.38;2.28;;;13.20;43.00;;;;;;5070391;28;20147;-67
2024/01/22 11:41:31;;;;;;;2.47;1.55;;;13.10;42.70;;;;;;5067892;28;20245;-65
2024/01/22 11:43:59;;;;;;;12.30;2.67;;;13.20;42.90;;;;;;5055995;28;20067;-75
2024/01/22 11:46:29;;;;;;;6.65;2.33;;;13.30;43.20;;;;;;5063976;28;20055;-65
2024/01/22 11:48:57;;;;;;;14.52;2.63;;;13.50;43.30;;;;;;5058888;28;20092;-67
2024/01/22 11:51:27;;;;;;;16.38;4.13;;;13.80;43.30;;;;;;5058903;28;20064;-68
2024/01/22 11:53:57;;;;;;;6.88;2.60;;;14.00;43.30;;;;;;5070566;28;20079;-66
2024/01/22 11:56:26;;;;;;;9.30;2.78;;;14.30;43.30;;;;;;5057585;28;20493;-67
2024/01/22 11:59:02;;;;;;;42.85;3.83;;;14.40;42.90;;;;;;5063065;28;20068;-62
2024/01/22 12:01:32;;;;;;;4.05;1.73;;;14.40;42.10;;;;;;5070753;28;20067;-66
2024/01/22 12:04:09;;;;;;;6.38;1.85;;;14.40;42.30;;;;;;5068485;28;20060;-64
2024/01/22 12:06:49;;;;;;;2.97;1.60;;;14.30;42.20;;;;;;5066209;28;20438;-64
2024/01/22 12:09:19;;;;;;;6.75;2.08;;;14.30;42.60;;;;;;5062631;28;20056;-65
2024/01/22 12:11:53;;;;;;;7.63;1.67;;;14.20;42.40;;;;;;5056981;28;20056;-64
2024/01/22 12:14:22;;;;;;;15.35;3.28;;;14.10;42.90;;;;;;5064395;28;20117;-65
2024/01/22 12:17:01;;;;;;;14.18;2.75;;;14.00;42.30;;;;;;5065242;28;20051;-64
2024/01/22 12:19:30;;;;;;;9.75;2.65;;;13.90;42.30;;;;;;5066302;28;20184;-65
2024/01/22 12:21:59;;;;;;;9.73;2.50;;;13.90;42.60;;;;;;5059401;28;20139;-63
2024/01/22 12:24:27;;;;;;;15.95;2.70;;;14.00;42.60;;;;;;5066214;28;20061;-64
2024/01/22 12:26:56;;;;;;;2.92;1.60;;;14.10;42.70;;;;;;5057572;28;20052;-62
2024/01/22 12:29:25;;;;;;;11.52;2.67;;;14.10;42.20;;;;;;5066805;28;20095;-63
2024/01/22 12:32:05;;;;;;;2.15;1.30;;;14.00;42.30;;;;;;5085264;28;20133;-63
2024/01/22 12:34:33;;;;;;;7.05;2.58;;;13.90;42.00;;;;;;5070724;28;20076;-64
2024/01/22 12:37:13;;;;;;;20.73;4.90;;;13.80;42.30;;;;;;5077325;28;20126;-72
2024/01/22 12:39:41;;;;;;;4.32;2.17;;;13.60;42.20;;;;;;5061784;28;20056;-70
2024/01/22 12:42:18;;;;;;;2.97;1.40;;;13.60;42.40;;;;;;5059405;28;20532;-63
2024/01/22 12:44:57;;;;;;;24.90;1.98;;;13.40;41.90;;;;;;5061947;28;20064;-66
2024/01/22 12:47:28;;;;;;;2.35;1.02;;;13.10;41.10;;;;;;5061427;28;20137;-65
2024/01/22 12:49:59;;;;;;;7.80;2.53;;;12.70;41.10;;;;;;5073979;28;20395;-67
2024/01/22 12:52:28;;;;;;;23.13;2.67;;;12.50;41.90;;;;;;5064885;28;20584;-64
2024/01/22 12:54:57;;;;;;;20.23;2.70;;;12.50;42.30;;;;;;5056195;28;20059;-62
2024/01/22 12:57:25;;;;;;;1.23;1.02;;;12.50;42.60;;;;;;5058731;28;20074;-64
2024/01/22 12:59:54;;;;;;;1.05;0.95;;;12.60;42.10;;;;;;5056202;28;20056;-62
2024/01/22 13:02:24;;;;;;;3.63;1.58;;;12.50;42.30;;;;;;5058561;28;20068;-65
2024/01/22 13:04:55;;;;;;;10.60;1.45;;;12.40;41.90;;;;;;5076054;28;20090;-62